Time;durP1;ratioP1;P1;durP2;ratioP2;P2;SDS_P1;SDS_P2;PMS_P1;PMS_P2;Temp;Humidity;BMP_temperature;BMP_pressure;BME280_temperature;BME280_humidity;BME280_pressure;Samples;Min_cycle;Max_cycle;Signal;HPM_P1;HPM_P2
2022/04/29 00:02:21;;;;;;;23.98;9.65;;;;;;;9.33;69.28;101185.41;5004993;28;20041;-79
2022/04/29 00:04:47;;;;;;;21.58;10.80;;;;;;;9.43;69.16;101177.59;5005699;28;20055;-79
2022/04/29 00:07:12;;;;;;;19.60;10.25;;;;;;;9.45;69.08;101183.63;5005450;28;20486;-79
2022/04/29 00:09:37;;;;;;;23.63;9.95;;;;;;;9.30;70.61;101178.50;5006060;28;20026;-80
2022/04/29 00:12:06;;;;;;;39.78;13.30;;;;;;;9.49;69.73;101175.00;5003885;28;20030;-79
2022/04/29 00:14:31;;;;;;;23.10;12.95;;;;;;;9.29;69.91;101170.56;5005537;28;20468;-79
2022/04/29 00:16:56;;;;;;;24.40;12.00;;;;;;;9.28;70.15;101177.06;5007327;28;20086;-80
2022/04/29 00:19:22;;;;;;;22.70;11.45;;;;;;;9.54;69.28;101173.28;5025502;28;20109;-78
2022/04/29 00:21:47;;;;;;;24.08;13.15;;;;;;;9.87;67.97;101175.91;5009585;28;20132;-80
2022/04/29 00:24:12;;;;;;;22.58;11.32;;;;;;;9.67;68.32;101175.06;5005644;28;20028;-79
2022/04/29 00:26:39;;;;;;;25.90;12.67;;;;;;;9.60;68.37;101179.72;5005795;28;20493;-81
2022/04/29 00:29:05;;;;;;;21.10;12.38;;;;;;;9.32;70.23;101175.56;5004083;28;20742;-79
2022/04/29 00:31:31;;;;;;;21.65;12.48;;;;;;;9.06;71.50;101177.44;5014207;28;20566;-79
2022/04/29 00:33:57;;;;;;;28.15;13.95;;;;;;;8.90;71.92;101176.91;5004167;28;20029;-80
2022/04/29 00:36:23;;;;;;;24.35;12.32;;;;;;;8.99;71.94;101183.75;5005790;28;20040;-79
2022/04/29 00:38:48;;;;;;;22.20;12.20;;;;;;;9.06;72.09;101177.44;5003711;28;20030;-79
2022/04/29 00:41:18;;;;;;;22.83;11.93;;;;;;;8.92;72.71;101173.97;5005160;28;20041;-79
2022/04/29 00:43:44;;;;;;;30.08;13.65;;;;;;;8.67;73.17;101178.28;5005032;28;20028;-80
2022/04/29 00:46:09;;;;;;;22.73;10.63;;;;;;;8.79;73.59;101174.91;5004415;28;20067;-80
2022/04/29 00:48:36;;;;;;;20.98;13.30;;;;;;;8.61;73.73;101171.00;5005276;28;20528;-79
2022/04/29 00:51:01;;;;;;;21.63;11.73;;;;;;;8.79;73.19;101174.91;5003320;28;20030;-79
2022/04/29 00:53:28;;;;;;;19.02;9.93;;;;;;;9.14;72.42;101169.00;5004902;28;20033;-79
2022/04/29 00:55:55;;;;;;;28.50;14.32;;;;;;;8.99;72.81;101161.97;5003617;28;20029;-79
2022/04/29 00:58:25;;;;;;;39.75;11.82;;;;;;;8.90;73.31;101157.88;5004807;28;21161;-79
2022/04/29 01:00:50;;;;;;;19.05;10.18;;;;;;;8.91;73.37;101151.38;5003815;28;20038;-80
2022/04/29 01:03:16;;;;;;;19.55;12.23;;;;;;;8.87;73.17;101145.53;5004988;28;20018;-79
2022/04/29 01:05:42;;;;;;;20.00;12.13;;;;;;;8.86;72.97;101151.19;5004958;28;20034;-78
2022/04/29 01:08:08;;;;;;;20.95;10.73;;;;;;;9.05;72.01;101145.84;5003904;28;20544;-78
2022/04/29 01:10:33;;;;;;;19.83;10.98;;;;;;;9.02;72.58;101143.56;5004367;28;20084;-80
2022/04/29 01:13:01;;;;;;;28.88;11.07;;;;;;;9.07;72.23;101141.03;5018062;28;20455;-79
2022/04/29 01:15:27;;;;;;;19.63;10.40;;;;;;;8.96;72.59;101139.84;5004761;28;20601;-78
2022/04/29 01:17:55;;;;;;;18.45;11.35;;;;;;;8.83;73.04;101146.19;5014083;28;20234;-79
2022/04/29 01:20:24;;;;;;;19.08;11.40;;;;;;;8.70;73.45;101139.81;5019878;28;20045;-79
2022/04/29 01:22:50;;;;;;;19.40;11.35;;;;;;;8.75;73.48;101139.13;5004205;28;20107;-78
2022/04/29 01:25:15;;;;;;;16.92;9.52;;;;;;;9.04;72.09;101133.28;5001745;28;20026;-79
2022/04/29 01:27:40;;;;;;;25.93;10.83;;;;;;;9.01;72.29;101141.91;5002586;28;20054;-79
2022/04/29 01:30:07;;;;;;;26.52;11.73;;;;;;;8.96;72.41;101135.22;5002557;28;20823;-80
2022/04/29 01:32:34;;;;;;;29.33;12.38;;;;;;;8.89;72.73;101129.00;5004063;28;20038;-79
2022/04/29 01:35:00;;;;;;;16.65;11.07;;;;;;;8.76;73.26;101124.50;5003079;28;20026;-80
2022/04/29 01:37:26;;;;;;;18.17;11.30;;;;;;;9.06;72.10;101123.84;5004036;28;20026;-79
2022/04/29 01:39:51;;;;;;;18.75;11.13;;;;;;;9.14;71.48;101120.03;5003952;28;20033;-80
2022/04/29 01:42:17;;;;;;;25.90;11.95;;;;;;;9.30;71.19;101118.63;5002181;28;20025;-79
2022/04/29 01:44:43;;;;;;;18.85;12.15;;;;;;;9.28;70.90;101115.31;5004203;28;20378;-79
2022/04/29 01:47:08;;;;;;;24.77;12.02;;;;;;;9.05;71.87;101118.66;5003060;28;20373;-78
2022/04/29 01:49:33;;;;;;;20.77;10.43;;;;;;;9.19;71.29;101117.47;5003375;28;20553;-79
2022/04/29 01:51:59;;;;;;;23.43;11.47;;;;;;;9.20;71.06;101115.56;5002353;28;20286;-79
2022/04/29 01:54:25;;;;;;;22.02;13.15;;;;;;;9.24;71.53;101108.63;5003558;28;20318;-78
2022/04/29 01:56:52;;;;;;;30.73;11.85;;;;;;;9.26;71.20;101111.13;5002776;28;20026;-80
2022/04/29 01:59:18;;;;;;;24.42;11.65;;;;;;;9.30;70.38;101110.47;5003317;28;20034;-80
2022/04/29 02:01:44;;;;;;;25.40;11.35;;;;;;;9.12;71.40;101119.41;5003305;28;20110;-79
2022/04/29 02:04:09;;;;;;;24.27;10.52;;;;;;;9.12;71.53;101111.25;5002941;28;20373;-79
2022/04/29 02:06:37;;;;;;;21.40;11.88;;;;;;;8.72;73.21;101110.50;5003724;28;20026;-80
2022/04/29 02:09:03;;;;;;;20.33;10.95;;;;;;;8.96;71.84;101118.91;5002352;28;20353;-79
2022/04/29 02:11:28;;;;;;;18.75;10.18;;;;;;;9.12;71.27;101113.97;5001349;28;20232;-80
2022/04/29 02:13:54;;;;;;;23.95;12.20;;;;;;;9.17;70.80;101107.88;5003029;28;20293;-80
2022/04/29 02:16:19;;;;;;;22.05;10.85;;;;;;;9.18;70.99;101104.91;5003191;28;20029;-79
2022/04/29 02:18:45;;;;;;;34.58;14.27;;;;;;;9.11;70.82;101106.88;5021191;28;20553;-79
2022/04/29 02:21:10;;;;;;;19.13;11.05;;;;;;;9.11;71.36;101109.59;5012858;28;20319;-79
2022/04/29 02:23:35;;;;;;;19.43;11.67;;;;;;;9.07;71.34;101108.38;5003611;28;20029;-79
2022/04/29 02:28:45;;;;;;;20.17;11.77;;;;;;;8.40;74.13;101105.03;5002677;28;20049;-79
2022/04/29 02:31:10;;;;;;;22.05;12.52;;;;;;;8.59;74.10;101103.25;5010999;28;20518;-80
2022/04/29 02:33:36;;;;;;;25.13;13.07;;;;;;;8.57;73.52;101104.50;5003137;28;20216;-79
2022/04/29 02:36:02;;;;;;;18.77;9.98;;;;;;;8.31;74.97;101106.31;5001545;28;20658;-79
2022/04/29 02:38:27;;;;;;;22.92;12.77;;;;;;;7.93;76.48;101111.47;5001296;28;20030;-80
2022/04/29 02:40:54;;;;;;;21.67;13.50;;;;;;;7.71;77.18;101098.16;5002447;28;20526;-79
2022/04/29 02:43:19;;;;;;;22.35;13.30;;;;;;;7.81;77.30;101098.53;5002422;28;20029;-78
2022/04/29 02:45:46;;;;;;;21.23;13.03;;;;;;;7.75;77.29;101095.88;5003672;28;20025;-79
2022/04/29 02:48:12;;;;;;;21.95;13.10;;;;;;;7.72;77.21;101097.13;5000626;28;20295;-79
2022/04/29 02:50:37;;;;;;;26.65;13.57;;;;;;;7.67;77.51;101096.91;5002511;28;20069;-79
2022/04/29 02:53:02;;;;;;;24.23;12.10;;;;;;;7.59;78.21;101106.13;5002462;28;20426;-79
2022/04/29 02:55:28;;;;;;;27.70;14.93;;;;;;;7.47;78.49;101097.78;5002429;28;20302;-79
2022/04/29 02:57:53;;;;;;;26.98;14.05;;;;;;;7.42;78.92;101095.72;5001336;28;20048;-79
2022/04/29 03:00:19;;;;;;;24.30;15.13;;;;;;;7.38;78.67;101099.06;5002758;28;20053;-80
2022/04/29 03:02:44;;;;;;;22.05;13.90;;;;;;;7.28;79.71;101094.06;5006322;28;20109;-78
2022/04/29 03:05:09;;;;;;;31.97;14.80;;;;;;;7.37;79.08;101098.22;5005948;28;20022;-79
2022/04/29 03:07:35;;;;;;;27.10;15.15;;;;;;;7.38;79.82;101102.63;5006690;28;20275;-79
2022/04/29 03:10:00;;;;;;;25.02;13.35;;;;;;;7.50;79.15;101105.53;5005758;28;20220;-80
2022/04/29 03:12:25;;;;;;;29.88;15.48;;;;;;;7.32;79.35;101098.84;5025363;28;20043;-79
2022/04/29 03:14:51;;;;;;;26.50;14.68;;;;;;;7.12;80.43;101099.69;5026148;28;20038;-79
2022/04/29 03:20:00;;;;;;;29.75;15.13;;;;;;;7.29;79.64;101102.00;5026841;28;20044;-80
2022/04/29 03:22:26;;;;;;;29.13;14.85;;;;;;;7.27;79.42;101093.22;5005650;28;20038;-79
2022/04/29 03:24:51;;;;;;;30.60;13.85;;;;;;;7.08;80.59;101093.00;5021177;28;20037;-78
2022/04/29 03:27:17;;;;;;;28.33;15.55;;;;;;;7.00;81.14;101095.94;5005719;28;20444;-79
2022/04/29 03:29:42;;;;;;;29.65;13.82;;;;;;;7.32;79.93;101100.75;5006382;28;20485;-78
2022/04/29 03:32:08;;;;;;;24.40;12.33;;;;;;;7.22;80.15;101096.56;5004913;28;20552;-79
2022/04/29 03:34:33;;;;;;;21.98;12.18;;;;;;;7.14;79.95;101101.38;5005840;28;20275;-79
2022/04/29 03:36:58;;;;;;;31.73;14.57;;;;;;;7.12;80.40;101096.97;5006064;28;20381;-79
2022/04/29 03:39:23;;;;;;;28.43;15.57;;;;;;;7.09;80.46;101094.69;5005051;28;20259;-79
2022/04/29 03:41:49;;;;;;;29.50;15.60;;;;;;;7.10;79.92;101092.81;5006277;28;20267;-78
2022/04/29 03:44:27;;;;;;;24.83;15.38;;;;;;;6.96;80.61;101097.38;5005119;28;20274;-79
2022/04/29 03:46:52;;;;;;;23.77;12.93;;;;;;;6.89;81.25;101102.81;5005266;28;20034;-79
2022/04/29 03:49:36;;;;;;;22.23;14.17;;;;;;;7.02;80.75;101099.28;5005526;28;20275;-78
2022/04/29 03:52:02;;;;;;;21.13;11.15;;;;;;;6.96;80.63;101097.38;5004412;28;20279;-79
2022/04/29 03:54:27;;;;;;;24.73;12.50;;;;;;;6.92;80.45;101088.84;5005932;28;20022;-79
2022/04/29 03:56:53;;;;;;;21.98;9.82;;;;;;;6.63;81.15;101093.63;5004948;28;20033;-79
2022/04/29 03:59:18;;;;;;;19.30;10.57;;;;;;;6.84;80.55;101097.16;5005715;28;20073;-79
2022/04/29 04:01:44;;;;;;;25.17;10.55;;;;;;;6.87;80.43;101092.19;5004259;28;20417;-79
2022/04/29 04:04:09;;;;;;;21.10;11.30;;;;;;;6.86;80.31;101086.94;5005947;28;20127;-79
2022/04/29 04:06:49;;;;;;;20.70;11.00;;;;;;;6.98;79.61;101087.16;5004944;28;20049;-79
2022/04/29 04:09:16;;;;;;;24.38;12.00;;;;;;;6.82;80.43;101096.53;5005473;28;20036;-79
2022/04/29 04:11:41;;;;;;;23.23;12.57;;;;;;;6.92;80.50;101093.41;5004387;28;20054;-79
2022/04/29 04:14:07;;;;;;;20.55;11.68;;;;;;;6.59;81.04;101090.47;5003955;28;20032;-78
2022/04/29 04:16:32;;;;;;;22.58;9.40;;;;;;;6.64;80.72;101087.97;5005508;28;20033;-79
2022/04/29 04:18:57;;;;;;;18.13;8.93;;;;;;;6.56;81.63;101096.31;5024467;28;20032;-79
2022/04/29 04:21:23;;;;;;;16.30;9.20;;;;;;;6.89;80.20;101087.38;5013001;28;20263;-79
2022/04/29 04:26:51;;;;;;;17.20;8.68;;;;;;;6.78;80.34;101090.72;5003165;28;20308;-78
2022/04/29 04:29:16;;;;;;;32.50;12.40;;;;;;;6.79;81.17;101086.97;5004979;28;20489;-77
2022/04/29 04:31:41;;;;;;;26.30;11.10;;;;;;;6.82;80.88;101081.13;5004318;28;20126;-79
2022/04/29 04:36:52;;;;;;;25.35;11.65;;;;;;;6.89;81.25;101086.56;5004744;28;20108;-79
2022/04/29 04:39:18;;;;;;;23.08;11.75;;;;;;;6.67;82.28;101088.63;5004764;28;20140;-79
2022/04/29 04:41:43;;;;;;;34.85;12.75;;;;;;;6.60;83.05;101099.44;5004385;28;20505;-78
2022/04/29 04:44:08;;;;;;;19.25;11.93;;;;;;;6.67;82.46;101099.47;5004129;28;20485;-79
2022/04/29 04:46:33;;;;;;;25.07;11.93;;;;;;;6.86;82.33;101087.78;5004632;28;20025;-79
2022/04/29 04:48:59;;;;;;;18.73;10.20;;;;;;;7.08;80.92;101098.44;5003918;28;20426;-79
2022/04/29 04:51:24;;;;;;;21.55;11.30;;;;;;;7.00;80.76;101091.34;5015036;28;20302;-79
2022/04/29 04:53:49;;;;;;;32.13;12.32;;;;;;;7.36;79.60;101086.53;5024372;28;20065;-79
2022/04/29 04:56:15;;;;;;;22.90;10.40;;;;;;;7.30;79.08;101098.22;5024068;28;20029;-79
2022/04/29 04:58:41;;;;;;;21.20;10.88;;;;;;;7.08;80.11;101093.00;5024116;28;20296;-79
2022/04/29 05:01:06;;;;;;;19.52;10.18;;;;;;;7.18;80.00;101102.63;5014252;28;20344;-79
2022/04/29 05:03:32;;;;;;;25.13;11.00;;;;;;;7.29;79.72;101098.44;5004557;28;20037;-78
2022/04/29 05:05:57;;;;;;;23.48;11.05;;;;;;;7.30;79.48;101092.78;5003600;28;20293;-77
2022/04/29 05:08:22;;;;;;;24.83;10.67;;;;;;;7.27;80.18;101098.66;5004426;28;20544;-79
2022/04/29 05:10:49;;;;;;;26.63;12.32;;;;;;;7.40;79.40;101099.69;5009517;28;20301;-79
2022/04/29 05:13:14;;;;;;;16.58;8.50;;;;;;;7.75;77.90;101091.25;5023624;28;20040;-79
2022/04/29 05:15:40;;;;;;;18.45;9.90;;;;;;;7.63;77.59;101093.78;5023857;28;20021;-78
2022/04/29 05:18:06;;;;;;;15.52;8.80;;;;;;;8.11;76.01;101090.94;5023543;28;20060;-79
2022/04/29 05:20:31;;;;;;;19.17;8.82;;;;;;;8.17;75.43;101090.06;5019145;28;20060;-79
2022/04/29 05:22:56;;;;;;;14.17;8.27;;;;;;;8.03;75.92;101090.09;5002112;28;20022;-79
2022/04/29 05:25:22;;;;;;;23.17;8.93;;;;;;;8.10;75.11;101094.69;5004158;28;20377;-79
2022/04/29 05:27:47;;;;;;;17.53;9.30;;;;;;;8.21;74.87;101096.75;5003250;28;20793;-79
2022/04/29 05:30:12;;;;;;;18.60;8.97;;;;;;;8.33;74.41;101094.19;5002074;28;20274;-78
2022/04/29 05:32:38;;;;;;;18.42;7.72;;;;;;;8.01;75.87;101091.41;5003441;28;20796;-79
2022/04/29 05:35:05;;;;;;;22.10;9.70;;;;;;;8.13;75.19;101092.38;5002858;28;20038;-78
2022/04/29 05:37:31;;;;;;;21.27;8.48;;;;;;;8.46;72.92;101087.00;5003497;28;20053;-79
2022/04/29 05:42:41;;;;;;;20.65;9.43;;;;;;;8.09;74.96;101088.44;4984380;28;20505;-79
2022/04/29 05:45:07;;;;;;;23.00;8.27;;;;;;;8.04;75.15;101094.50;4994940;28;20050;-80
2022/04/29 05:47:32;;;;;;;16.20;7.85;;;;;;;7.91;75.86;101097.28;5002854;28;20111;-78
2022/04/29 05:49:57;;;;;;;29.80;11.23;;;;;;;8.20;74.69;101095.06;5003059;28;20069;-79
2022/04/29 05:52:23;;;;;;;19.17;8.55;;;;;;;7.82;76.38;101089.38;5002831;28;20092;-79
2022/04/29 05:57:51;;;;;;;22.83;9.27;;;;;;;8.26;75.28;101088.75;5002465;28;20392;-79
2022/04/29 06:00:19;;;;;;;22.60;9.70;;;;;;;7.89;75.94;101093.94;5003271;28;20018;-79
2022/04/29 06:02:44;;;;;;;17.38;8.45;;;;;;;8.22;75.05;101092.97;5002851;28;20255;-79
2022/04/29 06:05:10;;;;;;;19.00;10.75;;;;;;;8.53;73.73;101099.50;5003468;28;20377;-80
2022/04/29 06:07:35;;;;;;;17.10;10.43;;;;;;;8.48;73.74;101093.06;5003138;28;20029;-80
2022/04/29 06:10:00;;;;;;;18.42;8.63;;;;;;;8.55;73.79;101093.84;5002375;28;20953;-79
2022/04/29 06:12:26;;;;;;;20.63;11.75;;;;;;;8.85;72.43;101092.41;5002273;28;20502;-79
2022/04/29 06:14:51;;;;;;;19.25;8.80;;;;;;;8.91;71.57;101090.72;5002312;28;20022;-79
2022/04/29 06:17:17;;;;;;;22.02;7.57;;;;;;;8.93;71.40;101086.69;5007860;28;20057;-79
2022/04/29 06:19:42;;;;;;;14.32;7.80;;;;;;;9.16;70.62;101087.16;5002974;28;20026;-79
2022/04/29 06:22:07;;;;;;;17.40;9.63;;;;;;;9.03;71.00;101093.56;5001208;28;21558;-79
2022/04/29 06:24:33;;;;;;;21.77;10.93;;;;;;;9.15;71.80;101078.16;5002989;28;20464;-79
2022/04/29 06:26:59;;;;;;;16.63;9.18;;;;;;;9.25;70.72;101071.38;5002297;28;20069;-79
2022/04/29 06:29:25;;;;;;;25.23;9.30;;;;;;;9.07;71.87;101081.16;5003188;28;20026;-79
2022/04/29 06:31:50;;;;;;;19.38;9.32;;;;;;;9.44;70.60;101085.84;5002227;28;20022;-77
2022/04/29 06:34:15;;;;;;;19.92;8.32;;;;;;;9.29;70.73;101092.50;5001881;28;20040;-79
2022/04/29 06:36:41;;;;;;;21.88;11.02;;;;;;;9.35;70.60;101098.91;5002282;28;20394;-80
2022/04/29 06:39:06;;;;;;;16.30;7.88;;;;;;;9.56;69.78;101089.50;5003190;28;20677;-79
2022/04/29 06:41:32;;;;;;;18.98;9.70;;;;;;;9.56;70.46;101094.09;5002155;28;20034;-79
2022/04/29 06:43:57;;;;;;;31.35;12.38;;;;;;;9.56;69.88;101103.09;5002701;28;20029;-79
2022/04/29 06:46:25;;;;;;;17.37;7.30;;;;;;;9.65;69.70;101100.94;5002331;28;20069;-79
2022/04/29 06:48:52;;;;;;;17.67;10.05;;;;;;;9.49;69.29;101106.94;5002612;28;20762;-79
2022/04/29 06:51:18;;;;;;;18.58;8.68;;;;;;;9.83;68.62;101107.44;5002471;28;20456;-79
2022/04/29 06:53:43;;;;;;;21.48;9.45;;;;;;;9.77;70.37;101102.88;5002244;28;20129;-79
2022/04/29 06:56:08;;;;;;;27.80;10.10;;;;;;;9.65;70.42;101102.81;5003269;28;20030;-78
2022/04/29 06:58:34;;;;;;;23.97;9.83;;;;;;;9.76;70.28;101103.97;5001730;28;20030;-79
2022/04/29 07:01:03;;;;;;;20.33;8.63;;;;;;;9.87;69.46;101102.34;5001229;28;20322;-80
2022/04/29 07:03:28;;;;;;;50.25;10.88;;;;;;;10.08;67.93;101098.34;5002674;28;20243;-79
2022/04/29 07:05:54;;;;;;;19.67;8.23;;;;;;;10.01;66.99;101098.41;5002618;28;20034;-80
2022/04/29 07:08:21;;;;;;;16.35;8.02;;;;;;;9.94;68.50;101092.22;5002970;28;20029;-80
2022/04/29 07:10:46;;;;;;;25.00;9.20;;;;;;;10.03;67.44;101095.47;5016835;28;20046;-79
2022/04/29 07:13:26;;;;;;;45.38;9.95;;;;;;;10.20;68.00;101090.22;5003151;28;20045;-79
2022/04/29 07:15:51;;;;;;;31.88;10.13;;;;;;;10.18;68.44;101094.25;5001927;28;20129;-80
2022/04/29 07:18:16;;;;;;;22.88;9.80;;;;;;;10.01;69.31;101092.13;5016857;28;20105;-80
2022/04/29 07:20:42;;;;;;;21.80;8.30;;;;;;;10.13;68.90;101094.91;5016414;28;20064;-80
2022/04/29 07:23:07;;;;;;;17.08;8.25;;;;;;;10.01;68.14;101100.31;5001997;28;20022;-80
2022/04/29 07:25:33;;;;;;;25.52;9.82;;;;;;;10.00;69.98;101093.22;5002312;28;20034;-79
2022/04/29 07:28:01;;;;;;;31.55;12.43;;;;;;;9.96;68.17;101086.56;5001859;28;20278;-80
2022/04/29 07:30:27;;;;;;;26.95;8.25;;;;;;;10.17;67.97;101087.94;5005531;28;20065;-80
2022/04/29 07:32:53;;;;;;;23.20;8.25;;;;;;;10.19;67.69;101098.66;5007975;28;20143;-79
2022/04/29 07:43:31;;;;;;;20.48;10.38;;;;;;;10.26;68.52;101080.31;5002634;28;20141;-79
2022/04/29 07:45:57;;;;;;;18.15;8.57;;;;;;;10.41;68.13;101076.34;5001727;28;20212;-80
2022/04/29 07:48:22;;;;;;;16.77;8.20;;;;;;;10.51;67.23;101076.63;5003865;28;20089;-79
2022/04/29 07:50:48;;;;;;;27.80;10.60;;;;;;;10.76;66.51;101078.34;5005556;28;20113;-80
2022/04/29 07:53:13;;;;;;;19.83;10.02;;;;;;;10.85;66.47;101081.56;5005654;28;20038;-80
2022/04/29 07:55:39;;;;;;;20.98;9.43;;;;;;;10.99;65.51;101074.00;5004223;28;20042;-81
2022/04/29 07:58:18;;;;;;;16.30;8.57;;;;;;;11.13;65.21;101063.69;5004993;28;20036;-80
2022/04/29 08:00:43;;;;;;;21.27;10.05;;;;;;;11.26;65.83;101068.09;5005134;28;20117;-80
2022/04/29 08:03:08;;;;;;;24.05;8.80;;;;;;;11.42;65.63;101071.19;5004733;28;20040;-81
2022/04/29 08:05:34;;;;;;;20.63;9.27;;;;;;;11.61;63.94;101082.81;5005722;28;20029;-80
2022/04/29 08:07:59;;;;;;;17.40;8.73;;;;;;;11.65;64.31;101074.97;5005171;28;20022;-80
2022/04/29 08:10:33;;;;;;;18.45;8.57;;;;;;;11.79;63.33;101081.00;5004668;28;20053;-80
2022/04/29 08:13:03;;;;;;;18.33;9.27;;;;;;;11.77;62.58;101069.47;5004677;28;20029;-80
2022/04/29 08:15:29;;;;;;;20.25;8.93;;;;;;;12.00;62.53;101068.56;5004668;28;20073;-81
2022/04/29 08:17:57;;;;;;;26.15;9.82;;;;;;;11.88;62.78;101071.34;5016103;28;20045;-79
2022/04/29 08:20:23;;;;;;;17.25;8.93;;;;;;;11.98;63.29;101070.72;5021807;28;20265;-80
2022/04/29 08:22:49;;;;;;;17.67;7.45;;;;;;;11.95;61.77;101073.94;5005338;28;20033;-80
2022/04/29 08:25:19;;;;;;;21.63;10.88;;;;;;;11.95;62.92;101065.75;5005155;28;20053;-80
2022/04/29 08:27:46;;;;;;;14.60;7.47;;;;;;;12.14;62.54;101063.69;5004368;28;20033;-80
2022/04/29 08:30:12;;;;;;;16.00;9.07;;;;;;;12.10;61.02;101065.19;5004581;28;20068;-80
2022/04/29 08:32:42;;;;;;;19.55;10.80;;;;;;;12.24;61.97;101068.50;5004964;28;20080;-81
2022/04/29 08:35:09;;;;;;;19.20;9.95;;;;;;;12.13;61.85;101072.13;5004317;28;20030;-80
2022/04/29 08:37:37;;;;;;;16.10;9.02;;;;;;;12.27;62.06;101067.19;5004655;28;20069;-80
2022/04/29 08:40:03;;;;;;;23.73;8.80;;;;;;;12.24;61.01;101067.69;5005293;28;20026;-80
2022/04/29 08:45:16;;;;;;;21.40;8.70;;;;;;;11.97;62.50;101062.75;4980897;28;20792;-81
2022/04/29 08:47:43;;;;;;;14.82;9.13;;;;;;;12.04;61.90;101066.16;4985085;28;20456;-80
2022/04/29 08:50:11;;;;;;;21.13;8.80;;;;;;;12.20;61.57;101061.91;4999366;28;20397;-81
2022/04/29 08:52:37;;;;;;;20.25;10.88;;;;;;;12.23;62.13;101060.56;5004838;28;20117;-80
2022/04/29 09:00:32;;;;;;;21.58;8.15;;;;;;;12.14;62.10;101063.69;5008057;28;20294;-80
2022/04/29 09:03:00;;;;;;;18.10;8.35;;;;;;;12.16;61.20;101060.72;4986388;28;20275;-80
2022/04/29 09:05:26;;;;;;;13.52;7.65;;;;;;;12.40;61.26;101066.09;4984752;28;20497;-80
2022/04/29 09:08:01;;;;;;;13.57;7.30;;;;;;;12.37;61.45;101072.03;4983772;28;20026;-79
2022/04/29 09:10:35;;;;;;;17.30;9.05;;;;;;;12.43;61.86;101068.31;4987634;28;20445;-80
2022/04/29 09:13:11;;;;;;;23.58;9.27;;;;;;;12.24;61.85;101067.69;5003668;28;20349;-79
2022/04/29 09:15:37;;;;;;;22.92;8.73;;;;;;;12.46;61.38;101070.56;5003411;28;20436;-80
2022/04/29 09:18:03;;;;;;;14.07;7.50;;;;;;;12.44;61.38;101066.41;5014604;28;20022;-80
2022/04/29 09:20:28;;;;;;;18.90;9.20;;;;;;;12.41;61.17;101061.44;5019867;28;20040;-81
2022/04/29 09:22:54;;;;;;;16.90;8.83;;;;;;;12.47;60.53;101065.91;5004593;28;20092;-80
2022/04/29 09:25:20;;;;;;;29.20;9.15;;;;;;;12.70;61.27;101067.69;5003800;28;20260;-80
2022/04/29 09:28:01;;;;;;;18.67;9.18;;;;;;;12.91;60.74;101070.78;5003698;28;20080;-80
2022/04/29 09:30:40;;;;;;;19.15;8.15;;;;;;;12.87;59.72;101066.91;5003375;28;20393;-79
2022/04/29 09:33:07;;;;;;;21.80;8.77;;;;;;;13.06;59.71;101066.63;5004097;28;20127;-80
2022/04/29 09:35:51;;;;;;;15.95;8.13;;;;;;;12.97;59.20;101066.22;5004496;28;20421;-81
2022/04/29 09:41:01;;;;;;;;;;;;;;;13.17;59.15;101057.50;5004011;28;20072;-80
2022/04/29 09:43:31;;;;;;;19.70;8.15;;;;;;;13.25;58.66;101055.41;5003646;28;20345;-80
2022/04/29 09:46:14;;;;;;;15.95;9.20;;;;;;;13.36;58.65;101067.34;5003175;28;20113;-81
2022/04/29 09:48:51;;;;;;;19.30;9.00;;;;;;;13.41;58.46;101067.41;5003855;28;20365;-80
2022/04/29 09:51:41;;;;;;;16.33;8.40;;;;;;;13.29;58.80;101059.31;5001564;28;20080;-80
2022/04/29 09:54:16;;;;;;;14.60;8.57;;;;;;;13.41;58.16;101067.41;5017963;28;20133;-81
2022/04/29 09:57:05;;;;;;;16.88;7.82;;;;;;;13.31;58.29;101062.63;5002963;28;20034;-80
2022/04/29 09:59:33;;;;;;;19.95;8.50;;;;;;;13.29;57.50;101059.31;4997118;28;20053;-79
2022/04/29 10:01:59;;;;;;;15.13;7.45;;;;;;;13.47;58.13;101060.94;5000687;28;20136;-80
2022/04/29 10:04:26;;;;;;;18.58;8.00;;;;;;;13.41;57.71;101057.28;5002774;28;20354;-80
2022/04/29 10:06:52;;;;;;;22.45;8.43;;;;;;;13.45;58.23;101060.34;5003435;28;20025;-81
2022/04/29 10:09:19;;;;;;;18.63;8.30;;;;;;;13.49;57.43;101064.25;5003037;28;20480;-80
2022/04/29 10:11:45;;;;;;;17.27;9.18;;;;;;;13.64;57.34;101049.97;5001722;28;20038;-80
2022/04/29 10:14:26;;;;;;;23.92;10.25;;;;;;;13.74;57.22;101056.66;5003250;28;20108;-79
2022/04/29 10:22:32;;;;;;;22.27;11.27;;;;;;;13.49;57.62;101052.44;5002747;28;20088;-80
2022/04/29 10:24:58;;;;;;;17.20;9.23;;;;;;;13.70;58.23;101050.84;5003008;28;20100;-80
2022/04/29 10:27:23;;;;;;;14.55;8.48;;;;;;;13.94;57.52;101042.38;5003695;28;20465;-80
2022/04/29 10:29:49;;;;;;;20.90;8.15;;;;;;;13.95;57.17;101048.69;5003102;28;20022;-80
2022/04/29 10:32:14;;;;;;;14.70;7.63;;;;;;;14.10;56.92;101048.84;5001878;28;20396;-80
2022/04/29 10:34:39;;;;;;;15.30;8.65;;;;;;;14.15;56.16;101047.25;5003432;28;20025;-81
2022/04/29 10:37:13;;;;;;;18.80;9.80;;;;;;;14.04;57.02;101049.03;5001457;28;20049;-80
2022/04/29 10:39:40;;;;;;;20.15;9.32;;;;;;;14.20;57.10;101047.28;5002635;28;20351;-80
2022/04/29 10:42:11;;;;;;;15.73;6.70;;;;;;;14.09;56.65;101049.13;5002560;28;20033;-81
2022/04/29 10:45:01;;;;;;;13.85;7.18;;;;;;;14.22;57.21;101056.94;5003747;28;20156;-80
2022/04/29 10:47:38;;;;;;;15.27;6.93;;;;;;;14.31;56.28;101056.47;5002462;28;20034;-80
2022/04/29 10:50:31;;;;;;;14.98;7.25;;;;;;;14.27;56.56;101058.91;5002477;28;20034;-79
2022/04/29 10:53:02;;;;;;;15.15;7.78;;;;;;;14.42;55.45;101057.41;5022579;28;20029;-80
2022/04/29 10:55:27;;;;;;;18.40;8.30;;;;;;;14.61;54.16;101054.28;5022184;28;20034;-80
2022/04/29 10:57:56;;;;;;;15.57;6.72;;;;;;;14.81;55.03;101056.38;5021402;28;20025;-80
2022/04/29 11:00:23;;;;;;;14.13;7.45;;;;;;;14.82;55.19;101052.56;5013144;28;20033;-80
2022/04/29 11:02:48;;;;;;;16.33;8.30;;;;;;;14.97;55.01;101057.34;5002651;28;20103;-80
2022/04/29 11:05:46;;;;;;;24.08;8.90;;;;;;;14.80;55.62;101047.31;5002516;28;20037;-80
2022/04/29 11:08:11;;;;;;;23.25;8.52;;;;;;;14.80;56.21;101039.09;4978950;28;20469;-81
2022/04/29 11:13:43;;;;;;;16.85;7.32;;;;;;;14.88;55.69;101039.72;5001369;28;20122;-81
2022/04/29 11:16:16;;;;;;;15.02;7.63;;;;;;;14.97;56.01;101043.63;5001792;28;20087;-80
2022/04/29 11:18:44;;;;;;;14.43;6.78;;;;;;;15.13;55.50;101044.56;5020324;28;20108;-81
2022/04/29 11:26:58;;;;;;;;;;;;;;;15.21;54.59;101037.75;5003570;28;20511;-81
2022/04/29 11:29:23;;;;;;;12.37;6.73;;;;;;;15.24;53.77;101039.97;5004465;28;19917;-80
2022/04/29 11:31:48;;;;;;;19.50;6.83;;;;;;;15.35;54.08;101034.53;5005679;28;20088;-79
2022/04/29 11:34:15;;;;;;;13.43;7.70;;;;;;;15.11;54.30;101034.94;5005726;28;20283;-80
2022/04/29 11:36:41;;;;;;;14.70;7.50;;;;;;;15.16;54.28;101038.53;5006088;28;20350;-81
2022/04/29 11:39:09;;;;;;;13.45;6.88;;;;;;;15.36;54.45;101033.44;5005940;28;20105;-80
2022/04/29 11:41:34;;;;;;;17.10;7.03;;;;;;;15.32;53.68;101029.56;5020436;28;20492;-80
2022/04/29 11:44:02;;;;;;;15.90;7.87;;;;;;;15.21;53.36;101026.78;5005497;28;20026;-80
2022/04/29 11:46:27;;;;;;;20.33;9.35;;;;;;;15.34;54.43;101024.63;5004975;28;20314;-80
2022/04/29 11:48:57;;;;;;;17.80;6.50;;;;;;;15.43;53.45;101022.22;5005663;28;20377;-80
2022/04/29 11:51:23;;;;;;;18.63;6.70;;;;;;;15.37;53.22;101013.13;5004920;28;20974;-80
2022/04/29 11:54:00;;;;;;;18.08;7.13;;;;;;;15.36;53.48;101008.69;5004563;28;20038;-80
2022/04/29 11:56:37;;;;;;;15.45;6.57;;;;;;;15.73;53.26;101007.78;5004325;28;20041;-80
2022/04/29 11:59:04;;;;;;;13.23;6.85;;;;;;;15.55;52.91;101009.09;5005594;28;20053;-81
2022/04/29 12:01:30;;;;;;;21.88;7.32;;;;;;;15.42;53.53;101012.31;5005446;28;20060;-81
2022/04/29 12:03:56;;;;;;;17.65;7.47;;;;;;;15.31;52.70;101006.78;5005937;28;20057;-80
2022/04/29 12:06:21;;;;;;;16.17;7.35;;;;;;;15.57;52.80;100993.16;5004969;28;20118;-81
2022/04/29 12:08:47;;;;;;;11.20;6.38;;;;;;;15.58;52.51;100994.78;5004005;28;20108;-81
2022/04/29 12:11:31;;;;;;;15.82;6.60;;;;;;;15.48;51.74;101000.22;5003687;28;20193;-80